createdAt,value
2018-06-24T00:02:29.211Z,12.4
2018-06-24T00:12:28.443Z,12.5
2018-06-24T00:22:27.665Z,13.1
2018-06-24T00:32:26.885Z,12.8
2018-06-24T00:42:26.116Z,12.6
2018-06-24T00:52:25.345Z,12.9
2018-06-24T01:02:24.566Z,13
2018-06-24T01:12:23.794Z,12.5
2018-06-24T01:22:23.019Z,13.1
2018-06-24T01:32:22.246Z,12.8
2018-06-24T01:42:21.472Z,12.8
2018-06-24T01:52:20.700Z,13.1
2018-06-24T02:02:19.928Z,12.5
2018-06-24T02:12:19.150Z,13.1
2018-06-24T02:22:18.374Z,12.7
2018-06-24T02:32:17.659Z,12.4
2018-06-24T02:42:16.826Z,13
2018-06-24T02:52:16.052Z,12.6
2018-06-24T03:02:15.281Z,13
2018-06-24T03:12:14.503Z,12.8
2018-06-24T03:22:13.729Z,12.6
2018-06-24T03:32:12.956Z,12.9
2018-06-24T03:42:12.182Z,12.9
2018-06-24T03:52:11.410Z,13.2
2018-06-24T04:02:10.634Z,13.9
2018-06-24T04:12:09.861Z,13.9
2018-06-24T04:22:09.091Z,14.6
2018-06-24T04:32:08.322Z,14
2018-06-24T04:42:07.542Z,13.9
2018-06-24T04:52:06.768Z,14.6
2018-06-24T05:02:05.996Z,14
2018-06-24T05:12:05.223Z,14.3
2018-06-24T05:22:04.452Z,14
2018-06-24T05:32:03.679Z,14.2
2018-06-24T05:42:02.912Z,14
2018-06-24T05:52:02.134Z,14.3
2018-06-24T06:02:01.360Z,14.4
2018-06-24T06:12:00.585Z,14.2
2018-06-24T06:21:59.816Z,13.9
2018-06-24T06:31:59.042Z,14.4
2018-06-24T06:41:58.270Z,14
2018-06-24T06:51:57.498Z,14.4
2018-06-24T07:01:56.728Z,14.3
2018-06-24T07:11:55.955Z,14.3
2018-06-24T07:21:55.181Z,14.7
2018-06-24T07:31:54.409Z,14.5
2018-06-24T07:41:53.639Z,14.1
2018-06-24T07:51:52.864Z,14
2018-06-24T08:01:52.092Z,14.6
2018-06-24T08:11:51.322Z,14.1
2018-06-24T08:21:50.549Z,14.1
2018-06-24T08:31:49.776Z,14.2
2018-06-24T08:41:49.005Z,14.4
2018-06-24T08:51:48.235Z,14.2
